createdAt,value
2018-02-17T00:01:38.726Z,89.37
2018-02-17T00:04:07.506Z,89.22
2018-02-17T00:06:35.795Z,89.53
2018-02-17T00:09:04.072Z,89.84
2018-02-17T00:11:32.350Z,90.41
2018-02-17T00:14:00.611Z,91.00
2018-02-17T00:16:28.899Z,90.62
2018-02-17T00:18:57.167Z,89.90
2018-02-17T00:21:25.440Z,90.22
2018-02-17T00:23:53.722Z,90.02
2018-02-17T00:26:22.022Z,89.63
2018-02-17T00:28:50.290Z,89.91
2018-02-17T00:31:18.599Z,91.22
2018-02-17T00:33:47.639Z,90.97
2018-02-17T00:36:15.913Z,90.01
2018-02-17T00:38:45.397Z,89.88
2018-02-17T00:41:13.734Z,90.62
2018-02-17T00:43:42.006Z,90.77
2018-02-17T00:46:11.047Z,90.15
2018-02-17T00:48:40.983Z,88.54
2018-02-17T00:51:09.278Z,89.12
2018-02-17T00:53:37.539Z,89.74
2018-02-17T00:56:05.812Z,90.93
2018-02-17T00:58:34.082Z,91.24
2018-02-17T01:01:02.363Z,91.87
2018-02-17T01:03:30.618Z,92.29
2018-02-17T01:05:59.642Z,91.58
2018-02-17T01:08:27.914Z,90.72
2018-02-17T01:10:56.202Z,90.36
2018-02-17T01:13:25.716Z,91.03
2018-02-17T01:15:53.969Z,91.20
2018-02-17T01:18:22.215Z,90.91
2018-02-17T01:20:51.259Z,90.53
2018-02-17T01:23:19.515Z,90.95
2018-02-17T01:25:47.786Z,90.20
2018-02-17T01:28:16.050Z,89.55
2018-02-17T01:30:45.080Z,88.89
2018-02-17T01:33:13.343Z,88.49
2018-02-17T01:35:41.609Z,88.89
2018-02-17T01:38:09.879Z,88.90
2018-02-17T01:40:38.940Z,90.01
2018-02-17T01:43:07.205Z,90.31
2018-02-17T01:45:35.480Z,91.33
2018-02-17T01:48:04.515Z,91.70
2018-02-17T01:50:33.563Z,91.41
2018-02-17T01:53:01.870Z,91.40
2018-02-17T01:55:30.119Z,91.42
2018-02-17T01:57:58.399Z,92.65
2018-02-17T02:00:26.679Z,92.73
2018-02-17T02:02:54.955Z,92.49
2018-02-17T02:05:23.215Z,91.98
2018-02-17T02:07:51.479Z,91.40
2018-02-17T02:10:19.753Z,91.68
2018-02-17T02:12:48.010Z,91.52
2018-02-17T02:15:16.283Z,91.01
2018-02-17T02:17:44.542Z,90.20
2018-02-17T02:20:13.574Z,89.79
2018-02-17T02:22:41.851Z,89.76
2018-02-17T02:25:10.115Z,90.96
2018-02-17T02:27:38.378Z,91.99
2018-02-17T02:30:07.406Z,91.62
2018-02-17T02:32:36.680Z,94.36
2018-02-17T02:35:04.943Z,93.96
2018-02-17T02:37:33.984Z,92.83
2018-02-17T02:40:03.036Z,92.11
2018-02-17T02:42:31.328Z,91.39
2018-02-17T02:44:59.611Z,90.71
2018-02-17T02:47:27.905Z,89.47
2018-02-17T02:49:56.179Z,89.08
2018-02-17T02:52:24.541Z,88.99
2018-02-17T02:54:52.797Z,88.42
2018-02-17T02:57:21.840Z,88.27
2018-02-17T02:59:50.110Z,87.64
2018-02-17T03:02:18.377Z,88.22
2018-02-17T03:04:46.667Z,88.95
2018-02-17T03:07:14.926Z,88.61
2018-02-17T03:09:43.183Z,88.42
2018-02-17T03:12:11.465Z,88.19
2018-02-17T03:14:39.725Z,88.53
2018-02-17T03:17:08.819Z,87.89
2018-02-17T03:19:37.838Z,87.83
2018-02-17T03:22:06.126Z,88.21
2018-02-17T03:24:34.430Z,88.93
2018-02-17T03:27:02.718Z,89.05
2018-02-17T03:29:30.988Z,88.28
2018-02-17T03:31:59.242Z,88.88
2018-02-17T03:34:27.511Z,88.61
2018-02-17T03:36:55.794Z,88.65
2018-02-17T03:39:24.063Z,88.83
2018-02-17T03:41:52.336Z,88.60
2018-02-17T03:44:20.595Z,88.83
2018-02-17T03:46:48.904Z,89.30
2018-02-17T03:49:17.160Z,90.40
2018-02-17T03:51:45.415Z,90.78
2018-02-17T03:54:13.899Z,90.93
2018-02-17T03:56:42.160Z,90.91
2018-02-17T03:59:10.439Z,91.75
2018-02-17T04:01:38.695Z,91.68
2018-02-17T04:04:07.729Z,91.00
2018-02-17T04:06:36.031Z,90.47
2018-02-17T04:09:04.287Z,90.10
2018-02-17T04:11:33.366Z,89.30
2018-02-17T04:14:01.630Z,89.64
2018-02-17T04:16:29.885Z,90.21
2018-02-17T04:18:58.919Z,90.87
2018-02-17T04:21:27.183Z,91.37
2018-02-17T04:23:55.455Z,91.15
2018-02-17T04:26:23.731Z,91.35
2018-02-17T04:28:51.994Z,90.87
2018-02-17T04:31:20.283Z,90.70
2018-02-17T04:33:48.564Z,90.63
2018-02-17T04:36:16.833Z,90.35
2018-02-17T04:38:45.090Z,90.01
2018-02-17T04:41:19.032Z,89.66
2018-02-17T04:43:59.038Z,89.03
2018-02-17T04:46:34.212Z,89.41
2018-02-17T04:49:05.512Z,89.29
2018-02-17T04:51:49.421Z,89.47
2018-02-17T04:54:23.138Z,88.90
2018-02-17T04:56:55.905Z,89.29
2018-02-17T05:02:51.560Z,92.45
2018-02-17T05:08:26.712Z,93.49
2018-02-17T05:10:54.968Z,93.42
2018-02-17T05:13:23.231Z,93.65
2018-02-17T05:16:05.376Z,93.49
2018-02-17T05:18:48.531Z,93.11
2018-02-17T05:21:18.721Z,92.36
2018-02-17T05:23:47.045Z,92.23
2018-02-17T05:26:15.642Z,92.33
2018-02-17T05:28:45.750Z,92.96
2018-02-17T05:31:15.958Z,93.35
2018-02-17T05:33:49.881Z,92.94
2018-02-17T05:36:20.579Z,93.27
2018-02-17T05:39:07.421Z,93.09
2018-02-17T05:41:50.562Z,92.91
2018-02-17T05:47:41.806Z,91.35
2018-02-17T05:50:10.075Z,90.55
2018-02-17T05:52:38.354Z,89.96
2018-02-17T05:55:06.619Z,89.66
2018-02-17T05:57:34.899Z,89.26
2018-02-17T06:00:03.174Z,89.11
2018-02-17T06:02:31.462Z,89.19
2018-02-17T06:04:59.779Z,89.80
2018-02-17T06:07:28.043Z,89.39
2018-02-17T06:09:57.067Z,89.19
2018-02-17T06:12:25.336Z,88.91
2018-02-17T06:14:53.589Z,88.85
2018-02-17T06:17:21.902Z,88.62
2018-02-17T06:19:50.151Z,89.30
2018-02-17T06:22:18.427Z,89.01
2018-02-17T06:24:46.683Z,88.66
2018-02-17T06:27:15.714Z,88.59
2018-02-17T06:29:43.991Z,88.85
2018-02-17T06:32:12.255Z,88.39
2018-02-17T06:34:40.530Z,88.56
2018-02-17T06:37:08.792Z,89.08
2018-02-17T06:39:37.815Z,88.54
2018-02-17T06:42:06.101Z,88.14
2018-02-17T06:44:34.355Z,87.90
2018-02-17T06:47:02.662Z,88.46
2018-02-17T06:49:30.922Z,88.09
2018-02-17T06:51:59.185Z,87.96
2018-02-17T06:54:27.461Z,87.89
2018-02-17T06:56:55.731Z,88.34
2018-02-17T06:59:24.912Z,88.14
2018-02-17T07:01:53.940Z,88.76
2018-02-17T07:04:22.207Z,87.93
2018-02-17T07:06:50.475Z,87.76
2018-02-17T07:09:18.741Z,87.56
2018-02-17T07:11:47.603Z,87.44
2018-02-17T07:14:15.868Z,87.41
2018-02-17T07:16:44.126Z,89.82
2018-02-17T07:19:12.407Z,90.77
2018-02-17T07:21:40.671Z,90.92
2018-02-17T07:24:08.950Z,90.40
2018-02-17T07:26:37.211Z,90.33
2018-02-17T07:29:05.504Z,90.63
2018-02-17T07:31:33.803Z,89.98
2018-02-17T07:34:02.066Z,89.19
2018-02-17T07:36:30.339Z,89.12
2018-02-17T07:38:58.604Z,89.04
2018-02-17T07:41:26.883Z,88.89
2018-02-17T07:43:55.945Z,88.70
2018-02-17T07:46:24.208Z,88.51
2018-02-17T07:48:52.515Z,88.32
2018-02-17T07:51:20.775Z,87.96
2018-02-17T07:53:49.059Z,88.95
2018-02-17T07:56:17.328Z,88.25
2018-02-17T07:58:45.592Z,87.92
2018-02-17T08:01:13.863Z,89.66
2018-02-17T08:03:42.128Z,89.87
2018-02-17T08:06:11.147Z,89.74
2018-02-17T08:08:39.428Z,89.05
2018-02-17T08:11:07.687Z,89.41
2018-02-17T08:13:35.975Z,88.38
2018-02-17T08:16:04.219Z,88.33
2018-02-17T08:18:33.244Z,87.64
2018-02-17T08:21:01.503Z,87.10
2018-02-17T08:23:29.824Z,86.56
2018-02-17T08:25:58.068Z,86.18
2018-02-17T08:28:26.892Z,86.69
2018-02-17T08:30:55.957Z,86.45
2018-02-17T08:33:24.216Z,86.04
2018-02-17T08:35:52.466Z,85.83
2018-02-17T08:38:21.492Z,84.79
2018-02-17T08:40:49.737Z,84.21
2018-02-17T08:43:18.755Z,83.90
2018-02-17T08:45:47.149Z,85.20
2018-02-17T08:48:15.421Z,84.68
2018-02-17T08:50:43.678Z,83.51
2018-02-17T08:53:11.966Z,83.10
2018-02-17T08:55:40.302Z,85.94
2018-02-17T08:58:08.566Z,85.69
2018-02-17T09:00:36.817Z,85.14
2018-02-17T09:03:05.087Z,84.83
2018-02-17T09:05:33.356Z,84.10
2018-02-17T09:08:01.590Z,83.23
2018-02-17T09:13:32.218Z,82.49
2018-02-17T09:16:00.490Z,82.58
2018-02-17T09:18:28.738Z,82.37
2018-02-17T09:20:56.995Z,82.53
2018-02-17T09:23:25.259Z,82.83
2018-02-17T09:25:54.303Z,83.63
2018-02-17T09:28:22.571Z,82.98
2018-02-17T09:30:50.815Z,82.49
2018-02-17T09:33:19.062Z,82.53
2018-02-17T09:35:47.328Z,81.35
2018-02-17T09:38:15.575Z,81.74
2018-02-17T09:40:43.855Z,80.59
2018-02-17T09:43:12.091Z,79.75
2018-02-17T09:45:40.343Z,79.49
2018-02-17T09:48:09.376Z,79.97
2018-02-17T09:50:37.631Z,79.22
2018-02-17T09:53:06.663Z,78.65
2018-02-17T09:55:34.951Z,79.55
2018-02-17T09:58:03.206Z,80.53
2018-02-17T10:00:31.496Z,79.69
2018-02-17T10:03:00.530Z,79.23
2018-02-17T10:05:29.582Z,79.62
2018-02-17T10:07:57.833Z,79.93
2018-02-17T10:10:26.147Z,79.50
2018-02-17T10:12:54.393Z,78.75
2018-02-17T10:15:22.675Z,78.64
2018-02-17T10:17:50.923Z,78.64
2018-02-17T10:20:19.175Z,78.40
2018-02-17T10:22:48.206Z,78.36
2018-02-17T10:25:16.531Z,77.54
2018-02-17T10:27:44.784Z,77.99
2018-02-17T10:30:13.037Z,77.28
2018-02-17T10:32:41.314Z,76.62
2018-02-17T10:35:09.578Z,76.54
2018-02-17T10:37:37.838Z,75.61
2018-02-17T10:40:06.856Z,75.37
2018-02-17T10:42:35.102Z,74.69
2018-02-17T10:45:04.147Z,74.96
2018-02-17T10:47:32.392Z,73.69
2018-02-17T10:50:00.659Z,73.84
2018-02-17T10:52:28.902Z,73.25
2018-02-17T10:54:57.154Z,72.92
2018-02-17T10:57:25.412Z,72.08
2018-02-17T10:59:53.675Z,72.12
2018-02-17T11:02:21.946Z,71.76
2018-02-17T11:04:50.216Z,71.17
2018-02-17T11:07:18.462Z,71.07
2018-02-17T11:09:46.710Z,71.97
2018-02-17T11:12:14.977Z,71.53
2018-02-17T11:14:43.220Z,70.72
2018-02-17T11:17:11.483Z,70.27
2018-02-17T11:19:40.509Z,69.32
2018-02-17T11:22:08.795Z,69.15
2018-02-17T11:24:37.071Z,68.69
2018-02-17T11:27:05.335Z,68.99
2018-02-17T11:29:33.601Z,68.40
2018-02-17T11:32:01.855Z,68.05
2018-02-17T11:34:30.884Z,67.97
2018-02-17T11:36:59.126Z,67.64
2018-02-17T11:39:28.144Z,67.62
2018-02-17T11:41:56.416Z,67.65
2018-02-17T11:44:24.675Z,68.36
2018-02-17T11:46:52.942Z,68.00
2018-02-17T11:49:21.961Z,68.16
2018-02-17T11:51:50.216Z,68.04
2018-02-17T11:54:18.471Z,67.97
2018-02-17T11:56:46.770Z,68.66
2018-02-17T11:59:15.787Z,67.48
2018-02-17T12:01:44.051Z,68.22
2018-02-17T12:04:12.317Z,67.74
2018-02-17T12:06:40.567Z,66.91
2018-02-17T12:09:09.593Z,66.81
2018-02-17T12:11:37.875Z,66.43
2018-02-17T12:14:06.119Z,66.65
2018-02-17T12:16:35.174Z,66.01
2018-02-17T12:19:03.422Z,65.70
2018-02-17T12:21:31.693Z,67.14
2018-02-17T12:23:59.940Z,66.49
2018-02-17T12:26:29.069Z,65.84
2018-02-17T12:28:57.319Z,65.52
2018-02-17T12:31:26.350Z,64.48
2018-02-17T12:33:54.592Z,63.87
2018-02-17T12:36:23.639Z,63.94
2018-02-17T12:38:51.911Z,62.60
2018-02-17T12:41:20.258Z,62.86
2018-02-17T12:43:48.508Z,60.83
2018-02-17T12:46:17.594Z,60.93
2018-02-17T12:48:46.679Z,60.64
2018-02-17T12:51:15.003Z,60.59
2018-02-17T12:53:43.259Z,59.94
2018-02-17T12:56:11.511Z,59.37
2018-02-17T12:58:39.790Z,59.72
2018-02-17T13:01:08.055Z,60.58
2018-02-17T13:03:36.303Z,60.12
2018-02-17T13:06:04.586Z,61.07
2018-02-17T13:08:32.839Z,61.48
2018-02-17T13:11:01.106Z,61.92
2018-02-17T13:13:29.432Z,61.63
2018-02-17T13:15:57.652Z,61.64
2018-02-17T13:18:25.923Z,63.15
2018-02-17T13:20:54.182Z,62.23
2018-02-17T13:23:24.034Z,63.35
2018-02-17T13:25:52.308Z,63.60
2018-02-17T13:28:28.464Z,61.49
2018-02-17T13:30:56.715Z,60.38
2018-02-17T13:33:25.856Z,60.23
2018-02-17T13:35:54.133Z,60.64
2018-02-17T13:38:22.379Z,61.53
2018-02-17T13:40:50.760Z,61.64
2018-02-17T13:43:19.045Z,61.94
2018-02-17T13:45:47.299Z,60.19
2018-02-17T13:48:15.693Z,60.86
2018-02-17T13:50:43.969Z,59.69
2018-02-17T13:53:12.288Z,60.07
2018-02-17T13:55:40.592Z,60.06
2018-02-17T13:58:09.804Z,60.35
2018-02-17T14:00:37.992Z,60.45
2018-02-17T14:03:06.254Z,60.07
2018-02-17T14:05:34.530Z,59.34
2018-02-17T14:08:02.782Z,59.58
2018-02-17T14:10:31.813Z,59.10
2018-02-17T14:13:00.140Z,58.36
2018-02-17T14:15:28.542Z,58.14
2018-02-17T14:17:57.807Z,57.40
2018-02-17T14:20:27.784Z,57.84
2018-02-17T14:22:56.143Z,57.97
2018-02-17T14:25:24.524Z,58.01
2018-02-17T14:27:52.857Z,57.97
2018-02-17T14:30:21.225Z,58.44
2018-02-17T14:32:49.656Z,58.16
2018-02-17T14:35:18.035Z,58.26
2018-02-17T14:37:47.560Z,57.29
2018-02-17T14:40:16.220Z,57.09
2018-02-17T14:42:44.632Z,57.77
2018-02-17T14:45:12.922Z,58.15
2018-02-17T14:47:41.235Z,59.00
2018-02-17T14:50:10.295Z,60.97
2018-02-17T14:52:38.586Z,60.34
2018-02-17T14:55:06.855Z,60.16
2018-02-17T14:57:35.123Z,60.33
2018-02-17T15:00:03.474Z,60.20
2018-02-17T15:02:31.776Z,60.02
2018-02-17T15:05:00.116Z,61.04
2018-02-17T15:07:28.399Z,60.85
2018-02-17T15:09:56.677Z,62.42
2018-02-17T15:12:24.957Z,64.06
2018-02-17T15:14:53.245Z,64.38
2018-02-17T15:17:21.511Z,64.58
2018-02-17T15:19:49.835Z,65.38
2018-02-17T15:22:18.186Z,65.59
2018-02-17T15:24:46.522Z,67.13
2018-02-17T15:27:14.849Z,67.32
2018-02-17T15:29:43.203Z,66.91
2018-02-17T15:32:11.576Z,67.29
2018-02-17T15:34:39.943Z,68.22
2018-02-17T15:37:08.256Z,68.37
2018-02-17T15:39:36.519Z,68.36
2018-02-17T15:42:04.807Z,68.54
2018-02-17T15:44:33.200Z,68.01
2018-02-17T15:47:01.479Z,68.54
2018-02-17T15:49:29.834Z,68.65
2018-02-17T15:51:58.198Z,68.67
2018-02-17T15:54:26.467Z,69.29
2018-02-17T15:56:54.937Z,70.03
2018-02-17T15:59:23.314Z,70.68
2018-02-17T16:01:52.337Z,70.93
2018-02-17T16:04:20.651Z,71.89
2018-02-17T16:06:49.732Z,72.53
2018-02-17T16:09:19.772Z,73.08
2018-02-17T16:11:48.186Z,73.98
2018-02-17T16:14:17.760Z,74.22
2018-02-17T16:16:47.106Z,74.33
2018-02-17T16:19:15.532Z,75.02
2018-02-17T16:21:44.591Z,76.22
2018-02-17T16:24:12.846Z,75.99
2018-02-17T16:26:41.246Z,75.82
2018-02-17T16:29:09.498Z,76.50
2018-02-17T16:31:37.774Z,77.17
2018-02-17T16:34:06.081Z,77.94
2018-02-17T16:36:35.233Z,77.85
2018-02-17T16:39:03.635Z,78.20
2018-02-17T16:41:31.927Z,77.93
2018-02-17T16:44:00.195Z,77.63
2018-02-17T16:46:28.528Z,77.94
2018-02-17T16:48:56.800Z,78.35
2018-02-17T16:51:25.944Z,78.61
2018-02-17T16:53:54.218Z,78.33
2018-02-17T16:56:22.626Z,79.05
2018-02-17T16:58:50.927Z,79.39
2018-02-17T17:01:21.078Z,80.20
2018-02-17T17:03:49.968Z,80.03
2018-02-17T17:06:18.551Z,79.85
2018-02-17T17:08:47.017Z,79.82
2018-02-17T17:11:15.851Z,79.61
2018-02-17T17:13:45.437Z,80.16
2018-02-17T17:16:13.989Z,80.39
2018-02-17T17:18:42.754Z,81.12
2018-02-17T17:21:11.351Z,81.11
2018-02-17T17:23:40.173Z,81.60
2018-02-17T17:26:09.171Z,81.57
2018-02-17T17:28:38.544Z,81.10
2018-02-17T17:31:07.249Z,80.99
2018-02-17T17:33:35.892Z,81.25
2018-02-17T17:36:04.330Z,82.43
2018-02-17T17:38:33.103Z,82.75
2018-02-17T17:41:01.591Z,82.73
2018-02-17T17:43:29.932Z,82.39
2018-02-17T17:45:58.818Z,83.09
2018-02-17T17:48:27.735Z,83.18
2018-02-17T17:50:56.632Z,83.23
2018-02-17T17:53:26.239Z,83.18
2018-02-17T17:55:56.185Z,83.10
2018-02-17T17:58:25.469Z,83.41
2018-02-17T18:00:56.253Z,83.32
2018-02-17T18:03:25.472Z,83.44
2018-02-17T18:05:55.363Z,83.78
2018-02-17T18:08:24.188Z,83.32
2018-02-17T18:10:54.573Z,83.64
2018-02-17T18:13:24.445Z,84.35
2018-02-17T18:15:54.331Z,83.86
2018-02-17T18:18:25.178Z,84.22
2018-02-17T18:20:54.966Z,84.37
2018-02-17T18:23:24.194Z,84.11
2018-02-17T18:25:54.113Z,85.17
2018-02-17T18:28:24.059Z,85.39
2018-02-17T18:30:54.082Z,86.46
2018-02-17T18:33:24.055Z,86.24
2018-02-17T18:35:53.466Z,85.71
2018-02-17T18:38:22.841Z,85.50
2018-02-17T18:40:52.996Z,85.70
2018-02-17T18:43:22.266Z,85.11
2018-02-17T18:45:52.396Z,84.96
2018-02-17T18:48:21.735Z,85.25
2018-02-17T18:50:51.159Z,86.12
2018-02-17T18:53:20.503Z,87.00
2018-02-17T18:55:49.785Z,87.49
2018-02-17T18:58:19.098Z,88.00
2018-02-17T19:00:48.378Z,87.73
2018-02-17T19:03:17.807Z,87.32
2018-02-17T19:05:48.122Z,88.70
2018-02-17T19:08:18.331Z,89.25
2018-02-17T19:10:47.670Z,88.94
2018-02-17T19:13:16.978Z,89.15
2018-02-17T19:15:46.965Z,89.77
2018-02-17T19:18:16.755Z,89.41
2018-02-17T19:20:47.349Z,89.27
2018-02-17T19:23:17.214Z,89.35
2018-02-17T19:25:47.460Z,89.42
2018-02-17T19:28:16.997Z,88.90
2018-02-17T19:30:47.858Z,88.99
2018-02-17T19:33:18.475Z,89.15
2018-02-17T19:35:49.228Z,88.62
2018-02-17T19:38:20.423Z,88.33
2018-02-17T19:40:50.436Z,87.34
2018-02-17T19:43:20.292Z,86.65
2018-02-17T19:45:50.446Z,86.12
2018-02-17T19:48:19.739Z,85.53
2018-02-17T19:50:50.478Z,84.81
2018-02-17T19:53:19.872Z,84.40
2018-02-17T19:55:50.819Z,83.93
2018-02-17T19:58:20.212Z,83.99
2018-02-17T20:00:51.058Z,83.74
2018-02-17T20:03:20.392Z,83.71
2018-02-17T20:05:49.677Z,83.67
2018-02-17T20:08:19.662Z,83.86
2018-02-17T20:10:50.365Z,84.08
2018-02-17T20:13:19.809Z,84.14
2018-02-17T20:15:49.915Z,87.51
2018-02-17T20:18:20.335Z,88.04
2018-02-17T20:20:50.393Z,88.03
2018-02-17T20:23:20.319Z,87.49
2018-02-17T20:25:50.299Z,87.03
2018-02-17T20:28:21.072Z,85.91
2018-02-17T20:30:51.924Z,85.04
2018-02-17T20:33:21.838Z,85.06
2018-02-17T20:35:52.467Z,85.08
2018-02-17T20:38:22.410Z,84.85
2018-02-17T20:40:53.197Z,84.86
2018-02-17T20:43:22.620Z,85.33
2018-02-17T20:45:52.213Z,85.13
2018-02-17T20:48:22.182Z,86.02
2018-02-17T20:50:52.919Z,85.98
2018-02-17T20:53:22.951Z,85.46
2018-02-17T20:55:52.717Z,85.28
2018-02-17T20:58:22.150Z,85.25
2018-02-17T21:00:52.474Z,85.59
2018-02-17T21:03:21.978Z,85.26
2018-02-17T21:05:53.201Z,85.16
2018-02-17T21:08:23.446Z,85.19
2018-02-17T21:10:53.523Z,84.88
2018-02-17T21:13:23.071Z,84.50
2018-02-17T21:15:53.930Z,84.90
2018-02-17T21:18:24.165Z,86.64
2018-02-17T21:20:54.238Z,87.35
2018-02-17T21:23:24.427Z,86.93
2018-02-17T21:25:54.279Z,86.56
2018-02-17T21:28:24.449Z,87.37
2018-02-17T21:30:53.750Z,87.44
2018-02-17T21:33:23.624Z,88.71
2018-02-17T21:35:52.893Z,89.05
2018-02-17T21:38:22.861Z,89.51
2018-02-17T21:40:52.864Z,89.61
2018-02-17T21:43:22.806Z,89.48
2018-02-17T21:45:52.264Z,91.74
2018-02-17T21:48:21.573Z,91.55
2018-02-17T21:50:51.459Z,90.32
2018-02-17T21:53:22.214Z,90.05
2018-02-17T21:55:52.875Z,90.32
2018-02-17T21:58:23.588Z,90.37
2018-02-17T22:00:53.770Z,89.67
2018-02-17T22:03:23.706Z,89.74
2018-02-17T22:05:54.771Z,90.03
2018-02-17T22:08:24.577Z,90.39
2018-02-17T22:10:54.597Z,91.14
2018-02-17T22:13:24.468Z,91.24
2018-02-17T22:15:54.446Z,90.61
2018-02-17T22:18:24.334Z,90.88
2018-02-17T22:20:55.033Z,91.61
2018-02-17T22:23:25.495Z,90.81
2018-02-17T22:25:55.555Z,90.50
2018-02-17T22:28:25.314Z,91.86
2018-02-17T22:30:56.007Z,92.56
2018-02-17T22:33:25.825Z,93.04
2018-02-17T22:35:55.722Z,91.52
2018-02-17T22:38:25.645Z,90.42
2018-02-17T22:40:55.510Z,89.44
2018-02-17T22:43:25.150Z,88.04
2018-02-17T22:45:55.126Z,87.52
2018-02-17T22:48:25.294Z,86.97
2018-02-17T22:50:54.684Z,86.41
2018-02-17T22:53:24.528Z,86.65
2018-02-17T22:55:54.489Z,86.24
2018-02-17T22:58:24.420Z,85.94
2018-02-17T23:00:53.788Z,85.63
2018-02-17T23:03:23.600Z,85.75
2018-02-17T23:05:52.789Z,86.24
2018-02-17T23:08:21.319Z,86.68
2018-02-17T23:10:49.696Z,86.96
2018-02-17T23:13:18.154Z,87.54
2018-02-17T23:15:46.415Z,87.62
2018-02-17T23:18:14.709Z,86.96
2018-02-17T23:20:42.971Z,86.28
2018-02-17T23:23:11.256Z,86.43
2018-02-17T23:25:39.538Z,87.14
2018-02-17T23:28:07.811Z,87.63
2018-02-17T23:30:36.172Z,88.03
2018-02-17T23:33:04.446Z,87.64
2018-02-17T23:35:32.808Z,87.36
2018-02-17T23:38:01.138Z,88.14
2018-02-17T23:40:29.407Z,87.70
2018-02-17T23:42:57.687Z,87.91
2018-02-17T23:45:26.042Z,87.87
2018-02-17T23:47:54.300Z,87.32
2018-02-17T23:50:22.559Z,87.17
2018-02-17T23:52:51.054Z,86.66
2018-02-17T23:55:19.338Z,86.13
2018-02-17T23:57:47.612Z,86.03
